Main page
METAR-TAF:

METAR-TAF

Airports :

Jomo Kenyatta International Airport

Nairobi, Kenya

latitude: 01-19S, longitude: 036-55E, elevation: 1624 m

Current weather observation

The report was made 32 minutes ago, at 02:00 UTC
Wind 2 kt from the North
Temperature 18°C
Humidity 83%
Pressure 1019 hPa
Visibility 10 km or more
Scattered clouds at a height of 1800 ft

METAR: HKJK 220200Z 35002KT 9999 SCT018 18/15 Q1019 NOSIG

Time: 05:32 (02:32 UTC)

Forecast

The report was made 9 hours and 32 minutes ago, at 17:00 UTC
Forecast valid from 21 at 18 UTC to 22 at 24 UTC
Wind 5 kt from the North/Northeast
Visibility 10 km or more
Scattered clouds at a height of 1700 ft
Becoming
from 22 at 08 UTC to 22 at 11 UTC
Wind 10 kt from the East/Northeast
Scattered clouds at a height of 2500 ft
Becoming
from 22 at 20 UTC to 22 at 23 UTC
Wind 5 kt from the North/Northeast
Scattered clouds at a height of 1900 ft

TAF: HKJK 211700Z 2118/2224 02005KT 9999 SCT017 BECMG 2208/2211 06010KT SCT025 BECMG 2220/2223 02005KT SCT019

Weather observations and forecasts of more than 4000 airports (METAR and TAF reports).

The available stations are represented by yellow and red dots on the map.

Hover mouse over dot to see the name of the station.

Then click to see weather observations and forecasts.

To change the map : click on the green buttons with a black cross to zoom in, on the green button with a dash to zoom out, or on the green arrows for adjacent maps.


METAR-TAF: